Time;durP1;ratioP1;P1;durP2;ratioP2;P2;SDS_P1;SDS_P2;PMS_P1;PMS_P2;Temp;Humidity;BMP_temperature;BMP_pressure;BME280_temperature;BME280_humidity;BME280_pressure;Samples;Min_cycle;Max_cycle;Signal;HPM_P1;HPM_P2
2023/09/27 00:01:32;;;;;;;10.80;10.00;;;12.20;99.90;;;;;;5012736;28;20670;-81
2023/09/27 00:03:59;;;;;;;10.77;9.87;;;12.20;99.90;;;;;;5013734;28;20207;-80
2023/09/27 00:06:26;;;;;;;11.07;10.07;;;12.10;99.90;;;;;;5013250;28;20193;-79
2023/09/27 00:08:52;;;;;;;11.07;10.27;;;12.10;99.90;;;;;;5012584;28;20609;-80
2023/09/27 00:11:20;;;;;;;11.20;10.40;;;12.00;99.90;;;;;;5012593;28;20211;-80
2023/09/27 00:13:48;;;;;;;11.50;10.63;;;12.10;99.90;;;;;;5012454;28;20250;-80
2023/09/27 00:16:14;;;;;;;10.73;9.93;;;12.10;99.90;;;;;;5013188;28;20238;-79
2023/09/27 00:18:41;;;;;;;11.03;10.33;;;12.10;99.90;;;;;;5013292;28;20220;-79
2023/09/27 00:21:08;;;;;;;12.00;11.00;;;12.00;99.90;;;;;;5012549;28;20204;-80
2023/09/27 00:23:35;;;;;;;11.47;10.47;;;12.00;99.90;;;;;;5011464;28;20685;-79
2023/09/27 00:26:02;;;;;;;10.53;9.83;;;11.90;99.90;;;;;;5020443;28;20670;-80
2023/09/27 00:28:30;;;;;;;10.73;10.03;;;11.90;99.90;;;;;;5012761;28;20253;-81
2023/09/27 00:30:57;;;;;;;10.70;9.90;;;11.90;99.90;;;;;;5012298;28;20200;-80
2023/09/27 00:33:23;;;;;;;11.20;10.50;;;11.90;99.90;;;;;;5011963;28;20216;-80
2023/09/27 00:35:50;;;;;;;11.20;10.40;;;11.90;99.90;;;;;;5011983;28;20223;-80
2023/09/27 00:38:17;;;;;;;10.97;10.27;;;11.90;99.90;;;;;;5020322;28;20254;-80
2023/09/27 00:40:45;;;;;;;11.20;10.40;;;11.90;99.90;;;;;;5013294;28;20204;-80
2023/09/27 00:43:25;;;;;;;12.13;11.13;;;11.80;99.90;;;;;;5012125;28;20228;-79
2023/09/27 00:45:56;;;;;;;12.43;11.63;;;11.90;99.90;;;;;;5011734;28;20200;-78
2023/09/27 00:48:23;;;;;;;11.90;11.10;;;11.90;99.90;;;;;;5020320;28;20235;-80
2023/09/27 00:50:52;;;;;;;11.63;10.83;;;11.80;99.90;;;;;;5012200;28;20198;-79
2023/09/27 00:53:19;;;;;;;12.47;11.47;;;11.90;99.90;;;;;;5019677;28;20242;-79
2023/09/27 00:55:46;;;;;;;11.37;10.57;;;11.80;99.90;;;;;;5011173;28;20206;-80
2023/09/27 00:58:17;;;;;;;12.40;11.47;;;11.80;99.90;;;;;;5011978;28;20687;-79
2023/09/27 01:00:45;;;;;;;10.77;9.97;;;11.80;99.90;;;;;;5012220;28;20204;-79
2023/09/27 01:03:14;;;;;;;11.20;10.40;;;11.70;99.90;;;;;;5011740;28;20228;-80
2023/09/27 01:05:42;;;;;;;6.87;4.50;;;11.70;99.90;;;;;;5012497;28;20665;-80
2023/09/27 01:08:09;;;;;;;7.63;4.97;;;11.60;99.90;;;;;;5011803;28;20238;-80
2023/09/27 01:10:36;;;;;;;5.27;4.77;;;11.60;99.90;;;;;;5011378;28;20201;-79
2023/09/27 01:13:04;;;;;;;6.23;5.10;;;11.70;99.90;;;;;;5016449;28;20223;-80
2023/09/27 01:15:32;;;;;;;7.53;6.93;;;11.70;99.90;;;;;;5012717;28;20216;-80
2023/09/27 01:18:02;;;;;;;10.57;9.70;;;11.70;99.90;;;;;;5011731;28;20673;-79
2023/09/27 01:20:32;;;;;;;5.83;4.80;;;11.70;99.90;;;;;;5019735;28;20238;-80
2023/09/27 01:23:01;;;;;;;8.37;7.53;;;11.70;99.90;;;;;;5013539;28;20736;-80
2023/09/27 01:25:30;;;;;;;13.27;12.27;;;11.70;99.90;;;;;;5012428;28;20195;-80
2023/09/27 01:27:58;;;;;;;11.57;10.77;;;11.70;99.90;;;;;;5011842;28;20302;-80
2023/09/27 01:30:31;;;;;;;12.03;11.13;;;11.80;99.90;;;;;;5011494;28;20294;-79
2023/09/27 01:32:59;;;;;;;10.77;9.97;;;11.70;99.90;;;;;;5011529;28;20234;-79
2023/09/27 01:35:26;;;;;;;8.60;7.97;;;11.70;99.90;;;;;;5012604;28;20273;-79
2023/09/27 01:37:53;;;;;;;12.47;11.63;;;11.80;99.90;;;;;;5021343;28;20207;-80
2023/09/27 01:40:26;;;;;;;12.53;11.20;;;11.80;99.90;;;;;;5015816;28;20212;-80
2023/09/27 01:42:53;;;;;;;12.03;11.13;;;11.70;99.90;;;;;;5029983;28;20232;-80
2023/09/27 01:45:20;;;;;;;12.33;11.33;;;11.70;99.90;;;;;;5021538;28;20247;-80
2023/09/27 01:47:47;;;;;;;11.67;10.87;;;11.70;99.90;;;;;;5020709;28;20206;-81
2023/09/27 01:50:14;;;;;;;11.50;10.70;;;11.70;99.90;;;;;;5015235;28;20208;-80
2023/09/27 01:52:40;;;;;;;12.00;11.10;;;11.60;99.90;;;;;;5017983;28;20608;-79
2023/09/27 01:55:09;;;;;;;12.00;10.97;;;11.50;99.90;;;;;;5014959;28;20327;-80
2023/09/27 01:57:37;;;;;;;11.93;11.03;;;11.50;99.90;;;;;;5019216;28;20210;-80
2023/09/27 02:00:08;;;;;;;11.50;10.70;;;11.50;99.90;;;;;;5024974;28;20230;-80
2023/09/27 02:02:39;;;;;;;11.23;10.50;;;11.50;99.90;;;;;;5021196;28;20217;-79
2023/09/27 02:05:07;;;;;;;5.97;5.40;;;11.40;99.90;;;;;;5017652;28;20239;-79
2023/09/27 02:07:34;;;;;;;6.87;5.63;;;11.40;99.90;;;;;;5014354;28;20285;-79
2023/09/27 02:10:01;;;;;;;6.23;5.57;;;11.40;99.90;;;;;;5015495;28;20661;-80
2023/09/27 02:12:29;;;;;;;6.87;6.27;;;11.30;99.90;;;;;;5014047;28;20228;-80
2023/09/27 02:14:57;;;;;;;9.20;5.33;;;11.30;99.90;;;;;;5014740;28;20206;-80
2023/09/27 02:17:24;;;;;;;11.83;11.03;;;11.30;99.90;;;;;;5014655;28;20234;-80
2023/09/27 02:19:51;;;;;;;11.67;10.87;;;11.30;99.90;;;;;;5014780;28;20588;-80
2023/09/27 02:22:18;;;;;;;11.63;10.80;;;11.30;99.90;;;;;;5014761;28;20722;-80
2023/09/27 02:24:45;;;;;;;7.90;7.20;;;11.30;99.90;;;;;;5016159;28;20209;-79
2023/09/27 02:27:12;;;;;;;7.37;6.40;;;11.20;99.90;;;;;;5016008;28;20265;-79
2023/09/27 02:29:38;;;;;;;6.60;5.90;;;11.30;99.90;;;;;;5014384;28;20199;-79
2023/09/27 02:32:07;;;;;;;7.10;6.20;;;11.30;99.90;;;;;;5014569;28;20229;-80
2023/09/27 02:34:34;;;;;;;7.70;6.10;;;11.20;99.90;;;;;;5021619;28;20210;-79
2023/09/27 02:37:01;;;;;;;8.23;7.53;;;11.30;99.90;;;;;;5014096;28;20218;-80
2023/09/27 02:39:28;;;;;;;11.90;10.90;;;11.30;99.90;;;;;;5013879;28;20204;-80
2023/09/27 02:41:56;;;;;;;13.33;12.33;;;11.30;99.90;;;;;;5014345;28;20235;-79
2023/09/27 02:44:23;;;;;;;12.60;11.63;;;11.30;99.90;;;;;;5021524;28;20667;-79
2023/09/27 02:46:51;;;;;;;6.83;6.13;;;11.30;99.90;;;;;;5022443;28;20253;-81
2023/09/27 02:49:20;;;;;;;6.57;5.97;;;11.30;99.90;;;;;;5015608;28;20557;-79
2023/09/27 02:51:48;;;;;;;6.20;5.60;;;11.30;99.90;;;;;;5016383;28;20224;-79
2023/09/27 02:54:15;;;;;;;5.70;5.20;;;11.20;99.90;;;;;;5021348;28;20203;-80
2023/09/27 02:56:43;;;;;;;6.17;5.57;;;11.20;99.90;;;;;;5035233;28;20215;-81
2023/09/27 02:59:10;;;;;;;5.73;5.23;;;11.20;99.90;;;;;;5028831;28;20192;-80
2023/09/27 03:01:40;;;;;;;6.20;5.60;;;11.20;99.90;;;;;;5022168;28;20781;-80
2023/09/27 03:04:07;;;;;;;5.77;5.27;;;11.10;99.90;;;;;;5022971;28;20831;-80
2023/09/27 03:06:37;;;;;;;6.07;5.47;;;11.10;99.90;;;;;;5032968;28;20194;-80
2023/09/27 03:09:04;;;;;;;6.10;5.50;;;11.10;99.90;;;;;;5025693;28;20560;-80
2023/09/27 03:11:33;;;;;;;5.53;5.03;;;11.10;99.90;;;;;;5019873;28;20700;-80
2023/09/27 03:14:00;;;;;;;6.10;5.50;;;11.00;99.90;;;;;;5018163;28;20218;-80
2023/09/27 03:16:29;;;;;;;5.80;4.90;;;10.90;99.90;;;;;;5028685;28;20217;-79
2023/09/27 03:18:55;;;;;;;10.03;9.33;;;10.90;99.90;;;;;;5019391;28;20210;-79
2023/09/27 03:21:22;;;;;;;11.13;10.33;;;10.90;99.90;;;;;;5013577;28;20193;-79
2023/09/27 03:23:53;;;;;;;10.77;9.97;;;10.90;99.90;;;;;;5012093;28;20203;-79
2023/09/27 03:26:20;;;;;;;11.63;10.83;;;10.90;99.90;;;;;;5027127;28;20197;-81
2023/09/27 03:28:47;;;;;;;9.50;8.80;;;10.90;99.90;;;;;;5024193;28;20199;-80
2023/09/27 03:31:14;;;;;;;9.07;8.37;;;10.90;99.90;;;;;;5019162;28;20248;-80
2023/09/27 03:33:41;;;;;;;10.47;9.77;;;10.90;99.90;;;;;;5027830;28;20280;-80
2023/09/27 03:36:08;;;;;;;10.90;10.20;;;10.90;99.90;;;;;;5021469;28;20217;-79
2023/09/27 03:38:36;;;;;;;10.93;10.23;;;10.90;99.90;;;;;;5023412;28;20629;-80
2023/09/27 03:41:08;;;;;;;10.40;9.70;;;10.90;99.90;;;;;;5013327;28;20209;-80
2023/09/27 03:43:35;;;;;;;8.30;7.67;;;10.90;99.90;;;;;;5013493;28;20248;-80
2023/09/27 03:46:03;;;;;;;9.40;8.60;;;10.90;99.90;;;;;;5013384;28;20214;-80
2023/09/27 03:48:30;;;;;;;8.20;7.50;;;10.90;99.90;;;;;;5024295;28;20195;-80
2023/09/27 03:50:57;;;;;;;8.07;7.30;;;10.70;99.90;;;;;;5020391;28;20214;-80
2023/09/27 03:53:27;;;;;;;5.73;5.13;;;10.70;99.90;;;;;;5021754;28;20319;-80
2023/09/27 03:55:53;;;;;;;5.40;4.90;;;10.60;99.90;;;;;;5014474;28;20216;-81
2023/09/27 03:58:22;;;;;;;5.67;5.17;;;10.60;99.90;;;;;;5015189;28;20271;-77
2023/09/27 04:00:48;;;;;;;5.60;5.10;;;10.50;99.90;;;;;;5014535;28;20684;-78
2023/09/27 04:03:16;;;;;;;8.70;7.90;;;10.50;99.90;;;;;;5014587;28;20263;-77
2023/09/27 04:05:43;;;;;;;10.67;9.97;;;10.50;99.90;;;;;;5024080;28;20199;-78
2023/09/27 04:08:11;;;;;;;8.00;7.40;;;10.50;99.90;;;;;;5023362;28;20198;-77
2023/09/27 04:10:38;;;;;;;10.80;10.10;;;10.40;99.90;;;;;;5013814;28;20188;-77
2023/09/27 04:13:05;;;;;;;5.50;5.00;;;10.40;99.90;;;;;;5014018;28;20337;-78
2023/09/27 04:15:36;;;;;;;4.97;4.57;;;10.40;99.90;;;;;;5014476;28;20215;-77
2023/09/27 04:18:03;;;;;;;5.43;4.93;;;10.40;99.90;;;;;;5014714;28;20229;-78
2023/09/27 04:20:30;;;;;;;5.47;4.93;;;10.40;99.90;;;;;;5024539;28;20197;-78
2023/09/27 04:22:56;;;;;;;6.67;5.57;;;10.40;99.90;;;;;;5014042;28;20224;-77
2023/09/27 04:25:24;;;;;;;5.20;4.70;;;10.40;99.90;;;;;;5030960;28;20251;-77
2023/09/27 04:27:50;;;;;;;5.07;4.67;;;10.40;99.90;;;;;;5023405;28;20656;-78
2023/09/27 04:30:19;;;;;;;5.93;5.23;;;10.40;99.90;;;;;;5014493;28;20588;-78
2023/09/27 04:32:50;;;;;;;6.13;4.77;;;10.30;99.90;;;;;;5012489;28;20718;-77
2023/09/27 04:35:17;;;;;;;7.90;7.20;;;10.30;99.90;;;;;;5013542;28;20235;-78
2023/09/27 04:37:44;;;;;;;7.60;7.00;;;10.30;99.90;;;;;;5016778;28;20212;-77
2023/09/27 04:40:12;;;;;;;13.73;12.83;;;10.30;99.90;;;;;;5026995;28;20611;-78
2023/09/27 04:42:39;;;;;;;12.40;11.60;;;10.20;99.90;;;;;;5025675;28;20714;-78
2023/09/27 04:45:08;;;;;;;10.37;9.67;;;10.20;99.90;;;;;;5019100;28;20197;-78
2023/09/27 04:47:34;;;;;;;5.83;5.27;;;10.20;99.90;;;;;;5015334;28;20200;-77
2023/09/27 04:50:03;;;;;;;6.87;6.27;;;10.10;99.90;;;;;;5014845;28;20270;-78
2023/09/27 04:52:30;;;;;;;6.40;5.80;;;10.10;99.90;;;;;;5015909;28;20284;-77
2023/09/27 04:54:57;;;;;;;5.63;5.03;;;10.10;99.90;;;;;;5023907;28;20284;-78
2023/09/27 04:57:24;;;;;;;5.57;5.07;;;10.10;99.90;;;;;;5015957;28;20299;-77
2023/09/27 04:59:52;;;;;;;5.50;5.00;;;10.10;99.90;;;;;;5015701;28;20620;-78
2023/09/27 05:02:19;;;;;;;6.30;5.30;;;10.10;99.90;;;;;;5022006;28;20221;-78
2023/09/27 05:04:47;;;;;;;8.20;7.50;;;10.10;99.90;;;;;;5024332;28;20193;-78
2023/09/27 05:07:15;;;;;;;7.97;7.27;;;10.10;99.90;;;;;;5015788;28;20211;-78
2023/09/27 05:09:42;;;;;;;6.03;5.47;;;10.10;99.90;;;;;;5017564;28;20204;-78
2023/09/27 05:12:09;;;;;;;5.47;4.97;;;10.10;99.90;;;;;;5024157;28;20228;-77
2023/09/27 05:14:36;;;;;;;5.87;5.27;;;10.10;99.90;;;;;;5020062;28;20248;-78
2023/09/27 05:17:02;;;;;;;5.90;5.33;;;10.10;99.90;;;;;;5025183;28;20299;-78
2023/09/27 05:19:29;;;;;;;7.13;6.43;;;10.10;99.90;;;;;;5018444;28;20227;-78
2023/09/27 05:21:56;;;;;;;7.10;6.43;;;10.20;99.90;;;;;;5020102;28;20220;-78
2023/09/27 05:24:24;;;;;;;7.50;6.80;;;10.10;99.90;;;;;;5018433;28;20320;-78
2023/09/27 05:26:51;;;;;;;6.50;5.90;;;10.10;99.90;;;;;;5036350;28;20655;-78
2023/09/27 05:29:18;;;;;;;6.77;6.07;;;10.10;99.90;;;;;;5020301;28;20211;-77
2023/09/27 05:31:45;;;;;;;7.83;7.13;;;10.10;99.90;;;;;;5026263;28;20217;-79
2023/09/27 05:34:12;;;;;;;7.20;6.60;;;10.20;99.90;;;;;;5019389;28;20211;-78
2023/09/27 05:36:40;;;;;;;8.07;7.07;;;10.20;99.90;;;;;;5020624;28;20224;-77
2023/09/27 05:39:08;;;;;;;9.50;8.70;;;10.20;99.90;;;;;;5027811;28;20728;-78
2023/09/27 05:41:37;;;;;;;8.10;7.40;;;10.20;99.90;;;;;;5027924;28;20220;-78
2023/09/27 05:44:04;;;;;;;7.10;6.40;;;10.20;99.90;;;;;;5033417;28;20211;-78
2023/09/27 05:46:33;;;;;;;8.27;7.53;;;10.30;99.90;;;;;;5021657;28;20196;-77
2023/09/27 05:49:02;;;;;;;8.70;7.90;;;10.30;99.90;;;;;;5027177;28;20201;-78
2023/09/27 05:51:30;;;;;;;8.27;6.80;;;10.40;99.90;;;;;;5018334;28;20216;-77
2023/09/27 05:53:58;;;;;;;6.83;6.13;;;10.50;99.90;;;;;;5018168;28;20232;-78
2023/09/27 05:56:25;;;;;;;6.97;6.37;;;10.50;99.90;;;;;;5018850;28;20652;-78
2023/09/27 05:58:53;;;;;;;10.30;9.33;;;10.60;99.90;;;;;;5019134;28;20198;-78
2023/09/27 06:01:20;;;;;;;6.70;6.00;;;10.60;99.90;;;;;;5017625;28;20578;-78
2023/09/27 06:03:47;;;;;;;7.47;6.70;;;10.70;99.90;;;;;;5016756;28;20293;-78
2023/09/27 06:06:14;;;;;;;6.70;5.87;;;10.80;99.90;;;;;;5018267;28;20207;-78
2023/09/27 06:08:41;;;;;;;6.33;5.73;;;10.90;99.90;;;;;;5019414;28;20203;-78
2023/09/27 06:11:09;;;;;;;6.73;6.10;;;11.00;99.90;;;;;;5019563;28;20200;-79
2023/09/27 06:13:37;;;;;;;5.90;5.30;;;11.20;99.90;;;;;;5018059;28;20218;-78
2023/09/27 06:16:13;;;;;;;5.87;5.27;;;11.30;99.90;;;;;;5018277;28;20201;-79
2023/09/27 06:18:40;;;;;;;5.90;5.30;;;11.40;99.90;;;;;;5018620;28;20306;-78
2023/09/27 06:21:07;;;;;;;8.00;7.37;;;11.50;99.90;;;;;;5019452;28;20210;-78
2023/09/27 06:23:35;;;;;;;5.33;4.83;;;11.70;99.90;;;;;;5018948;28;20192;-78
2023/09/27 06:26:02;;;;;;;5.97;5.33;;;11.70;99.90;;;;;;5023621;28;20618;-79
2023/09/27 06:28:29;;;;;;;10.07;9.37;;;11.90;99.90;;;;;;5021168;28;20236;-79
2023/09/27 06:30:56;;;;;;;8.03;7.33;;;11.90;99.90;;;;;;5018251;28;20684;-78
2023/09/27 06:33:24;;;;;;;5.60;5.10;;;12.00;99.90;;;;;;5018188;28;20270;-78
2023/09/27 06:35:51;;;;;;;7.90;7.20;;;12.10;99.90;;;;;;5034486;28;20245;-79
2023/09/27 06:38:21;;;;;;;6.13;5.53;;;12.20;99.90;;;;;;5019758;28;20219;-79
2023/09/27 06:40:48;;;;;;;5.60;5.10;;;12.30;99.90;;;;;;5018904;28;20196;-79
2023/09/27 06:43:15;;;;;;;6.10;5.00;;;12.40;99.90;;;;;;5017770;28;20226;-78
2023/09/27 06:45:42;;;;;;;5.87;5.37;;;12.50;99.90;;;;;;5019096;28;20203;-78
2023/09/27 06:48:09;;;;;;;8.57;7.90;;;12.60;99.90;;;;;;5030542;28;20231;-78
2023/09/27 06:50:41;;;;;;;9.57;8.87;;;12.70;99.90;;;;;;5020047;28;20196;-79
2023/09/27 06:53:09;;;;;;;4.77;4.37;;;12.80;99.90;;;;;;5016516;28;20227;-78
2023/09/27 06:55:36;;;;;;;5.47;4.97;;;12.90;99.90;;;;;;5016439;28;20231;-82
2023/09/27 06:58:03;;;;;;;5.03;4.57;;;12.90;99.90;;;;;;5013793;28;20235;-80
2023/09/27 07:00:30;;;;;;;5.65;5.15;;;13.10;99.90;;;;;;5013163;28;20529;-81
2023/09/27 07:02:57;;;;;;;6.85;6.25;;;13.20;99.90;;;;;;5012975;28;20442;-81
2023/09/27 07:05:26;;;;;;;10.30;9.40;;;13.50;99.90;;;;;;5021530;28;20987;-81
2023/09/27 07:07:54;;;;;;;5.90;5.20;;;13.70;99.90;;;;;;5013539;28;20459;-81
2023/09/27 07:10:22;;;;;;;7.13;6.33;;;14.10;99.90;;;;;;5015092;28;20199;-80
2023/09/27 07:12:50;;;;;;;5.60;5.00;;;14.50;99.90;;;;;;5034958;28;20220;-80
2023/09/27 07:15:17;;;;;;;6.27;5.30;;;14.80;99.90;;;;;;5023820;28;20225;-81
2023/09/27 07:17:44;;;;;;;6.57;5.47;;;15.20;99.90;;;;;;5030593;28;20644;-81
2023/09/27 07:20:20;;;;;;;10.95;9.85;;;15.50;99.90;;;;;;5029794;28;20989;-81
2023/09/27 07:22:48;;;;;;;10.98;9.98;;;15.90;99.90;;;;;;5022756;28;20438;-80
2023/09/27 07:25:19;;;;;;;7.13;6.47;;;16.40;99.90;;;;;;5032269;28;20670;-81
2023/09/27 07:27:48;;;;;;;6.10;5.40;;;16.70;99.90;;;;;;5019725;28;20207;-81
2023/09/27 07:30:18;;;;;;;9.60;5.73;;;17.10;99.90;;;;;;5020233;28;20199;-81
2023/09/27 07:32:46;;;;;;;6.87;5.67;;;17.40;99.90;;;;;;5012228;28;20228;-81
2023/09/27 07:35:14;;;;;;;7.30;5.60;;;17.80;99.90;;;;;;5013670;28;20197;-81
2023/09/27 07:37:41;;;;;;;10.97;10.17;;;18.10;99.90;;;;;;5018363;28;20317;-81
2023/09/27 07:40:11;;;;;;;7.80;6.30;;;18.30;99.90;;;;;;5012617;28;20598;-82
2023/09/27 07:42:44;;;;;;;5.30;4.80;;;18.50;99.90;;;;;;5014554;28;20229;-81
2023/09/27 07:45:20;;;;;;;8.27;7.53;;;18.70;99.90;;;;;;5012775;28;20624;-82
2023/09/27 07:47:48;;;;;;;5.87;4.73;;;19.10;99.90;;;;;;5013387;28;20194;-83
2023/09/27 07:50:16;;;;;;;4.87;4.33;;;19.40;99.90;;;;;;5012886;28;20250;-82
2023/09/27 07:52:43;;;;;;;6.87;4.90;;;19.50;99.90;;;;;;5012001;28;20266;-83
2023/09/27 07:55:14;;;;;;;4.97;4.50;;;19.70;99.90;;;;;;5022486;28;20203;-82
2023/09/27 07:57:43;;;;;;;6.87;5.47;;;19.90;99.90;;;;;;5029737;28;20277;-81
2023/09/27 08:00:15;;;;;;;9.17;8.37;;;20.00;99.90;;;;;;5018194;28;20204;-82
2023/09/27 08:02:42;;;;;;;6.07;3.90;;;20.00;99.90;;;;;;5013779;28;20310;-82
2023/09/27 08:05:10;;;;;;;8.93;8.20;;;20.00;99.90;;;;;;5029510;28;20728;-82
2023/09/27 08:07:38;;;;;;;6.30;5.77;;;20.10;99.90;;;;;;5030425;28;20620;-82
2023/09/27 08:10:06;;;;;;;5.47;4.27;;;20.60;99.90;;;;;;5024106;28;20863;-81
2023/09/27 08:12:34;;;;;;;5.33;4.83;;;20.70;99.90;;;;;;5023089;28;20226;-83
2023/09/27 08:15:03;;;;;;;6.30;5.43;;;20.90;99.90;;;;;;5028160;28;20204;-82
2023/09/27 08:17:31;;;;;;;6.53;4.50;;;20.80;99.90;;;;;;5013602;28;20216;-83
2023/09/27 08:19:58;;;;;;;6.30;4.33;;;20.90;99.90;;;;;;5020221;28;20204;-83
2023/09/27 08:22:25;;;;;;;7.57;4.53;;;21.00;99.90;;;;;;5021357;28;20220;-82
2023/09/27 08:24:52;;;;;;;8.00;5.47;;;21.00;99.90;;;;;;5013109;28;20201;-82
2023/09/27 08:27:19;;;;;;;6.00;4.53;;;21.00;99.90;;;;;;5011892;28;20274;-83
2023/09/27 08:29:46;;;;;;;6.57;5.47;;;20.90;99.90;;;;;;5012099;28;20701;-83
2023/09/27 08:32:14;;;;;;;5.97;4.27;;;21.10;99.90;;;;;;5013529;28;20572;-83
2023/09/27 08:34:41;;;;;;;8.03;7.23;;;21.20;99.90;;;;;;5013584;28;20287;-83
2023/09/27 08:37:11;;;;;;;5.87;4.13;;;21.40;99.90;;;;;;5012901;28;20200;-83
2023/09/27 08:39:38;;;;;;;6.90;3.90;;;21.70;99.90;;;;;;5011876;28;20229;-82
2023/09/27 08:42:05;;;;;;;5.10;4.60;;;21.80;99.90;;;;;;5011776;28;20252;-82
2023/09/27 08:44:34;;;;;;;5.13;4.60;;;21.70;99.90;;;;;;5019456;28;20196;-83
2023/09/27 08:47:01;;;;;;;6.63;5.50;;;21.80;99.90;;;;;;5015793;28;20197;-83
2023/09/27 08:49:30;;;;;;;5.87;4.47;;;21.90;99.90;;;;;;5011947;28;20243;-83
2023/09/27 08:51:57;;;;;;;5.50;4.33;;;22.00;99.90;;;;;;5012394;28;20231;-83
2023/09/27 08:54:24;;;;;;;5.47;5.00;;;22.10;99.90;;;;;;5011691;28;20295;-83
2023/09/27 08:56:52;;;;;;;7.67;5.10;;;22.20;99.90;;;;;;5023158;28;20195;-79
2023/09/27 08:59:19;;;;;;;4.80;3.95;;;22.30;99.90;;;;;;5017477;28;20463;-78
2023/09/27 09:01:47;;;;;;;4.90;3.95;;;22.60;99.90;;;;;;5012474;28;20431;-79
2023/09/27 09:04:14;;;;;;;8.47;7.87;;;22.70;99.90;;;;;;5013623;28;20220;-79
2023/09/27 09:06:42;;;;;;;4.87;4.13;;;22.80;99.90;;;;;;5021716;28;20204;-79
2023/09/27 09:09:11;;;;;;;4.68;4.18;;;22.90;99.90;;;;;;5019352;28;20427;-78
2023/09/27 09:11:43;;;;;;;4.47;4.03;;;22.90;99.90;;;;;;5018433;28;20516;-79
2023/09/27 09:14:10;;;;;;;8.60;7.90;;;23.00;99.90;;;;;;5016137;28;20196;-79
2023/09/27 09:16:47;;;;;;;5.40;4.03;;;23.10;99.90;;;;;;5016011;28;20196;-79
2023/09/27 09:19:22;;;;;;;5.93;4.33;;;23.30;99.90;;;;;;5012007;28;20224;-80
2023/09/27 09:21:57;;;;;;;7.23;6.13;;;23.30;99.90;;;;;;5012921;28;20231;-79
2023/09/27 09:24:24;;;;;;;4.43;3.90;;;23.20;99.90;;;;;;5011007;28;20196;-79
2023/09/27 09:27:04;;;;;;;5.00;4.20;;;23.20;99.90;;;;;;5012036;28;20189;-79
2023/09/27 09:29:45;;;;;;;5.80;4.10;;;23.20;99.90;;;;;;5012870;28;20196;-79
2023/09/27 09:32:13;;;;;;;6.33;4.50;;;23.20;99.90;;;;;;5011642;28;20267;-80
2023/09/27 09:34:43;;;;;;;9.27;8.60;;;23.40;99.90;;;;;;5019942;28;20207;-79
2023/09/27 09:37:18;;;;;;;6.93;4.13;;;23.50;99.90;;;;;;5019129;28;20196;-80
2023/09/27 09:39:46;;;;;;;5.13;4.30;;;23.40;99.90;;;;;;5027142;28;20671;-80
2023/09/27 09:42:13;;;;;;;5.77;3.77;;;23.30;99.90;;;;;;5026581;28;20216;-80
2023/09/27 09:44:41;;;;;;;6.00;4.00;;;23.40;99.90;;;;;;5030086;28;20376;-80
2023/09/27 09:47:13;;;;;;;4.70;4.30;;;23.30;99.90;;;;;;5027341;28;20474;-79
2023/09/27 09:49:41;;;;;;;4.10;3.70;;;23.10;99.90;;;;;;5017677;28;20196;-80
2023/09/27 09:52:12;;;;;;;5.20;4.00;;;23.10;99.90;;;;;;5012318;28;20813;-80
2023/09/27 09:54:46;;;;;;;5.50;4.17;;;23.10;99.90;;;;;;5013827;28;20189;-80
2023/09/27 09:57:14;;;;;;;5.03;3.50;;;23.00;99.90;;;;;;5014133;28;20204;-81
2023/09/27 09:59:50;;;;;;;7.83;7.17;;;22.90;99.90;;;;;;5015535;28;20400;-83
2023/09/27 10:02:21;;;;;;;8.87;8.07;;;22.80;99.90;;;;;;5019198;28;20717;-81
2023/09/27 10:04:55;;;;;;;9.00;8.30;;;22.80;99.90;;;;;;5019131;28;20656;-80
2023/09/27 10:07:22;;;;;;;6.67;6.10;;;22.90;99.90;;;;;;5017774;28;20265;-80
2023/09/27 10:09:52;;;;;;;6.17;5.63;;;23.00;99.90;;;;;;5018669;28;20188;-78
2023/09/27 10:12:21;;;;;;;6.97;6.47;;;23.00;99.90;;;;;;5024223;28;20248;-82
2023/09/27 10:14:50;;;;;;;6.93;6.30;;;23.10;99.90;;;;;;5018524;28;20655;-81
2023/09/27 10:17:25;;;;;;;7.30;6.60;;;23.10;99.90;;;;;;5016067;28;20196;-80
2023/09/27 10:20:12;;;;;;;7.27;6.63;;;23.00;99.90;;;;;;5014068;28;20212;-80
2023/09/27 10:22:41;;;;;;;8.17;7.37;;;23.10;99.90;;;;;;5015549;28;20216;-82
2023/09/27 10:25:35;;;;;;;8.17;7.63;;;22.90;99.90;;;;;;5026586;28;20250;-80
2023/09/27 10:28:10;;;;;;;8.33;7.73;;;22.80;99.90;;;;;;5016325;28;20208;-81
2023/09/27 10:31:06;;;;;;;7.97;7.37;;;22.90;99.90;;;;;;5017794;28;20231;-80
2023/09/27 10:33:34;;;;;;;8.33;7.63;;;23.00;99.90;;;;;;5018244;28;20207;-81
2023/09/27 10:36:32;;;;;;;7.93;7.30;;;22.90;99.90;;;;;;5020650;28;20275;-81
2023/09/27 10:39:03;;;;;;;8.50;7.80;;;23.00;99.90;;;;;;5017405;28;20323;-81
2023/09/27 10:41:48;;;;;;;4.17;3.33;;;23.00;99.90;;;;;;5016678;28;20216;-81
2023/09/27 10:44:29;;;;;;;3.93;3.17;;;22.90;99.90;;;;;;5016087;28;20667;-80
2023/09/27 10:46:56;;;;;;;3.67;3.17;;;22.90;99.90;;;;;;5017707;28;20242;-81
2023/09/27 10:49:25;;;;;;;5.00;4.57;;;22.90;99.90;;;;;;5016874;28;20231;-81
2023/09/27 10:51:52;;;;;;;5.70;5.20;;;23.00;99.90;;;;;;5017182;28;20310;-81
2023/09/27 10:54:23;;;;;;;5.77;5.37;;;22.90;99.90;;;;;;5015473;28;20275;-81
2023/09/27 10:56:53;;;;;;;7.63;6.93;;;22.70;99.90;;;;;;5016113;28;20201;-81
2023/09/27 10:59:27;;;;;;;7.80;7.07;;;22.70;99.90;;;;;;5017017;28;20243;-81
2023/09/27 11:01:54;;;;;;;7.47;6.87;;;22.70;99.90;;;;;;5015338;28;20220;-81
2023/09/27 11:04:23;;;;;;;4.37;3.30;;;22.70;99.90;;;;;;5017886;28;20202;-81
2023/09/27 11:06:50;;;;;;;4.03;3.63;;;22.70;99.90;;;;;;5018351;28;20197;-81
2023/09/27 11:09:19;;;;;;;5.33;3.10;;;22.60;99.90;;;;;;5024722;28;20196;-81
2023/09/27 11:11:47;;;;;;;3.93;3.47;;;22.70;99.90;;;;;;5017109;28;20645;-81
2023/09/27 11:14:26;;;;;;;3.60;3.30;;;22.70;99.90;;;;;;5016050;28;20228;-81
2023/09/27 11:16:53;;;;;;;4.13;3.40;;;22.80;99.90;;;;;;5016849;28;20228;-81
2023/09/27 11:19:28;;;;;;;4.07;3.33;;;22.90;99.90;;;;;;5017454;28;20679;-81
2023/09/27 11:21:55;;;;;;;4.17;3.33;;;22.80;99.90;;;;;;5017143;28;20714;-81
2023/09/27 11:24:21;;;;;;;3.93;3.50;;;22.90;99.90;;;;;;5015818;28;20204;-81
2023/09/27 11:26:48;;;;;;;7.07;6.57;;;22.80;99.90;;;;;;5023833;28;20268;-81
2023/09/27 11:29:23;;;;;;;7.93;7.33;;;22.80;99.90;;;;;;5015213;28;20196;-81
2023/09/27 11:31:56;;;;;;;8.20;7.60;;;22.80;99.90;;;;;;5014828;28;20223;-81
2023/09/27 11:34:23;;;;;;;8.37;7.77;;;22.90;99.90;;;;;;5021861;28;20282;-80
2023/09/27 11:36:52;;;;;;;8.27;7.77;;;22.80;99.90;;;;;;5028225;28;20204;-81
2023/09/27 11:39:20;;;;;;;7.63;7.13;;;22.90;99.90;;;;;;5032202;28;20220;-81
2023/09/27 11:41:47;;;;;;;7.50;6.90;;;22.90;99.90;;;;;;5023823;28;20223;-81
2023/09/27 11:44:20;;;;;;;8.07;7.47;;;22.90;99.90;;;;;;5014487;28;20201;-81
2023/09/27 11:46:49;;;;;;;7.80;7.30;;;22.90;99.90;;;;;;5014600;28;20656;-81
2023/09/27 11:49:16;;;;;;;8.00;7.40;;;23.00;99.90;;;;;;5016677;28;20639;-81
2023/09/27 11:51:44;;;;;;;7.80;7.30;;;22.90;99.90;;;;;;5016898;28;20294;-82
2023/09/27 11:54:12;;;;;;;8.53;7.93;;;22.90;99.90;;;;;;5024279;28;20259;-81
2023/09/27 11:56:39;;;;;;;8.17;7.67;;;22.80;99.90;;;;;;5018390;28;20196;-82
2023/09/27 11:59:07;;;;;;;7.20;6.70;;;22.80;99.90;;;;;;5018018;28;20589;-81
2023/09/27 12:01:35;;;;;;;7.80;7.30;;;22.90;99.90;;;;;;5016199;28;20235;-81
2023/09/27 12:04:02;;;;;;;8.00;7.20;;;23.00;99.90;;;;;;5014669;28;20219;-81
2023/09/27 12:06:31;;;;;;;7.50;7.00;;;23.10;99.90;;;;;;5013706;28;20192;-82
2023/09/27 12:08:59;;;;;;;7.30;6.70;;;23.10;99.90;;;;;;5021859;28;20677;-81
2023/09/27 12:11:26;;;;;;;7.10;6.60;;;23.10;99.90;;;;;;5014185;28;20315;-81
2023/09/27 12:13:53;;;;;;;7.10;6.60;;;23.10;99.90;;;;;;5016321;28;20220;-81
2023/09/27 12:16:21;;;;;;;7.00;6.50;;;23.20;99.90;;;;;;5015306;28;20279;-81
2023/09/27 12:18:49;;;;;;;6.87;6.37;;;23.30;99.90;;;;;;5013911;28;20595;-81
2023/09/27 12:21:16;;;;;;;7.00;6.50;;;23.30;99.90;;;;;;5014421;28;20204;-82
2023/09/27 12:23:44;;;;;;;7.40;6.90;;;23.30;99.90;;;;;;5023160;28;20197;-82
2023/09/27 12:26:12;;;;;;;7.33;6.83;;;23.20;99.90;;;;;;5031104;28;20723;-81
2023/09/27 12:28:39;;;;;;;7.70;6.97;;;23.20;99.90;;;;;;5015648;28;20253;-81
2023/09/27 12:31:06;;;;;;;7.30;6.80;;;23.30;99.90;;;;;;5014396;28;20261;-81
2023/09/27 12:33:33;;;;;;;7.30;6.80;;;23.30;99.90;;;;;;5014326;28;20686;-82
2023/09/27 12:36:02;;;;;;;7.33;6.83;;;23.40;99.90;;;;;;5016455;28;20227;-82
2023/09/27 12:38:32;;;;;;;7.40;6.90;;;23.20;99.90;;;;;;5016954;28;20204;-81
2023/09/27 12:41:01;;;;;;;7.20;6.60;;;23.20;99.90;;;;;;5015247;28;20200;-82
2023/09/27 12:43:28;;;;;;;7.20;6.73;;;23.20;99.90;;;;;;5014395;28;20779;-81
2023/09/27 12:45:55;;;;;;;6.80;6.30;;;23.20;99.90;;;;;;5014493;28;20578;-81
2023/09/27 12:48:22;;;;;;;6.77;6.37;;;23.30;99.90;;;;;;5014782;28;20298;-81
2023/09/27 12:50:48;;;;;;;7.07;6.47;;;23.20;99.90;;;;;;5015594;28;20598;-81